createdAt,value
2022-09-24T00:01:23.000Z,12.00
2022-09-24T00:04:02.217Z,12.00
2022-09-24T00:06:31.188Z,12.00
2022-09-24T00:08:58.377Z,12.00
2022-09-24T00:11:28.630Z,12.00
2022-09-24T00:13:57.932Z,12.00
2022-09-24T00:16:28.004Z,12.00
2022-09-24T00:18:54.998Z,12.00
2022-09-24T00:21:25.014Z,11.90
2022-09-24T00:23:58.280Z,11.90
2022-09-24T00:26:43.659Z,11.90
2022-09-24T00:29:13.736Z,11.80
2022-09-24T00:31:40.689Z,11.80
2022-09-24T00:34:07.530Z,11.80
2022-09-24T00:36:34.313Z,11.80
2022-09-24T00:39:01.058Z,11.80
2022-09-24T00:41:32.018Z,11.80
2022-09-24T00:43:59.768Z,11.80
2022-09-24T00:46:44.495Z,11.80
2022-09-24T00:49:14.842Z,11.80
2022-09-24T00:51:45.450Z,11.70
2022-09-24T00:54:17.113Z,11.70
2022-09-24T00:56:46.516Z,11.70
2022-09-24T00:59:17.245Z,11.60
2022-09-24T01:01:45.716Z,11.60
2022-09-24T01:04:13.696Z,11.60
2022-09-24T01:06:40.764Z,11.70
2022-09-24T01:09:07.979Z,11.60
2022-09-24T01:12:04.658Z,11.60
2022-09-24T01:14:58.087Z,11.60
2022-09-24T01:17:40.069Z,11.50
2022-09-24T01:20:34.642Z,11.50
2022-09-24T01:23:35.239Z,11.40
2022-09-24T01:26:19.402Z,11.40
2022-09-24T01:29:28.262Z,11.30
2022-09-24T01:32:01.997Z,11.40
2022-09-24T01:34:37.079Z,11.40
2022-09-24T01:37:04.739Z,11.30
2022-09-24T01:39:33.134Z,11.40
2022-09-24T01:42:00.789Z,11.40
2022-09-24T01:44:27.545Z,11.40
2022-09-24T01:46:55.467Z,11.50
2022-09-24T01:49:22.185Z,11.50
2022-09-24T01:51:58.182Z,11.50
2022-09-24T01:54:35.767Z,11.50
2022-09-24T01:57:17.347Z,11.50
2022-09-24T01:59:55.189Z,11.50
2022-09-24T02:02:33.902Z,11.50
2022-09-24T02:05:42.344Z,11.60
2022-09-24T02:08:24.636Z,11.60
2022-09-24T02:11:02.321Z,11.60
2022-09-24T02:13:40.085Z,11.70
2022-09-24T02:16:09.837Z,11.80
2022-09-24T02:18:40.756Z,11.90
2022-09-24T02:21:13.238Z,12.10
2022-09-24T02:23:51.660Z,12.20
2022-09-24T02:26:18.412Z,12.40
2022-09-24T02:28:45.497Z,12.50
2022-09-24T02:31:18.095Z,12.50
2022-09-24T02:34:07.731Z,12.60
2022-09-24T02:36:35.036Z,12.60
2022-09-24T02:39:03.028Z,12.70
2022-09-24T02:41:31.241Z,12.70
2022-09-24T02:43:58.350Z,12.70
2022-09-24T02:46:25.274Z,12.70
2022-09-24T02:48:52.000Z,12.70
2022-09-24T02:51:18.771Z,12.70
2022-09-24T02:53:45.476Z,12.70
2022-09-24T02:56:12.100Z,12.70
2022-09-24T02:58:38.760Z,12.70
2022-09-24T03:01:06.046Z,12.70
2022-09-24T03:03:33.083Z,12.70
2022-09-24T03:05:59.914Z,12.70
2022-09-24T03:08:27.051Z,12.70
2022-09-24T03:10:55.871Z,12.70
2022-09-24T03:13:22.702Z,12.70
2022-09-24T03:15:49.330Z,12.70
2022-09-24T03:18:16.036Z,12.70
2022-09-24T03:20:43.255Z,12.70
2022-09-24T03:23:09.976Z,12.70
2022-09-24T03:25:36.703Z,12.60
2022-09-24T03:28:03.280Z,12.60
2022-09-24T03:30:48.752Z,12.60
2022-09-24T03:33:15.967Z,12.60
2022-09-24T03:35:42.734Z,12.50
2022-09-24T03:38:09.450Z,12.50
2022-09-24T03:40:36.139Z,12.50
2022-09-24T03:43:02.825Z,12.50
2022-09-24T03:45:29.504Z,12.50
2022-09-24T03:47:56.132Z,12.40
2022-09-24T03:50:22.902Z,12.40
2022-09-24T03:52:49.433Z,12.30
2022-09-24T03:55:16.108Z,12.30
2022-09-24T03:57:42.748Z,12.20
2022-09-24T04:00:10.302Z,12.20
2022-09-24T04:02:36.995Z,12.20
2022-09-24T04:05:03.859Z,12.20
2022-09-24T04:07:30.390Z,12.10
2022-09-24T04:09:57.059Z,12.10
2022-09-24T04:12:23.691Z,12.10
2022-09-24T04:14:50.512Z,12.00
2022-09-24T04:17:17.478Z,12.00
2022-09-24T04:19:44.113Z,12.00
2022-09-24T04:22:10.890Z,11.90
2022-09-24T04:24:37.495Z,11.90
2022-09-24T04:27:04.187Z,11.90
2022-09-24T04:29:30.790Z,11.90
2022-09-24T04:31:57.452Z,11.90
2022-09-24T04:34:24.114Z,11.90
2022-09-24T04:36:50.765Z,11.90
2022-09-24T04:39:17.388Z,11.90
2022-09-24T04:41:44.247Z,11.90
2022-09-24T04:44:13.264Z,11.90
2022-09-24T04:46:40.827Z,11.90
2022-09-24T04:49:09.229Z,11.90
2022-09-24T04:51:36.452Z,11.90
2022-09-24T04:54:03.623Z,11.90
2022-09-24T04:56:31.103Z,11.90
2022-09-24T04:58:58.664Z,11.90
2022-09-24T05:01:25.787Z,11.90
2022-09-24T05:03:53.528Z,11.90
2022-09-24T05:06:20.232Z,12.00
2022-09-24T05:08:46.876Z,12.00
2022-09-24T05:11:13.607Z,12.00
2022-09-24T05:13:40.290Z,12.10
2022-09-24T05:16:06.981Z,12.10
2022-09-24T05:18:33.569Z,12.10
2022-09-24T05:21:00.326Z,12.10
2022-09-24T05:23:26.996Z,12.10
2022-09-24T05:26:12.716Z,12.10
2022-09-24T05:28:40.923Z,12.10
2022-09-24T05:31:09.056Z,12.10
2022-09-24T05:33:36.667Z,12.10
2022-09-24T05:36:04.503Z,12.10
2022-09-24T05:38:32.818Z,12.10
2022-09-24T05:40:59.950Z,12.10
2022-09-24T05:43:27.694Z,12.10
2022-09-24T05:45:54.573Z,12.10
2022-09-24T05:48:21.340Z,12.10
2022-09-24T05:50:48.031Z,12.10
2022-09-24T05:53:14.689Z,12.10
2022-09-24T05:55:43.068Z,12.10
2022-09-24T05:58:13.960Z,12.10
2022-09-24T06:00:40.768Z,12.10
2022-09-24T06:03:10.888Z,12.10
2022-09-24T06:05:37.670Z,12.10
2022-09-24T06:08:05.476Z,12.10
2022-09-24T06:10:32.533Z,12.20
2022-09-24T06:12:59.339Z,12.10
2022-09-24T06:15:27.146Z,12.20
2022-09-24T06:17:54.746Z,12.20
2022-09-24T06:20:22.992Z,12.20
2022-09-24T06:22:50.460Z,12.20
2022-09-24T06:25:17.059Z,12.20
2022-09-24T06:27:43.694Z,12.20
2022-09-24T06:30:11.703Z,12.20
2022-09-24T06:32:38.372Z,12.20
2022-09-24T06:35:05.406Z,12.20
2022-09-24T06:37:32.111Z,12.20
2022-09-24T06:39:59.132Z,12.20
2022-09-24T06:42:27.734Z,12.20
2022-09-24T06:44:55.924Z,12.20
2022-09-24T06:47:23.959Z,12.20
2022-09-24T06:49:50.615Z,12.20
2022-09-24T06:52:17.295Z,12.20
2022-09-24T06:54:43.979Z,12.20
2022-09-24T06:57:11.338Z,12.20
2022-09-24T06:59:37.981Z,12.30
2022-09-24T07:02:04.674Z,12.30
2022-09-24T07:04:31.322Z,12.30
2022-09-24T07:07:16.832Z,12.30
2022-09-24T07:09:43.499Z,12.30
2022-09-24T07:12:10.391Z,12.30
2022-09-24T07:14:37.094Z,12.30
2022-09-24T07:17:03.795Z,12.30
2022-09-24T07:19:30.488Z,12.30
2022-09-24T07:21:57.806Z,12.30
2022-09-24T07:24:24.456Z,12.30
2022-09-24T07:26:51.201Z,12.40
2022-09-24T07:29:18.426Z,12.30
2022-09-24T07:31:45.173Z,12.40
2022-09-24T07:34:11.798Z,12.40
2022-09-24T07:36:38.556Z,12.40
2022-09-24T07:39:05.265Z,12.40
2022-09-24T07:41:32.014Z,12.50
2022-09-24T07:43:58.788Z,12.50
2022-09-24T07:46:25.719Z,12.50
2022-09-24T07:48:58.366Z,12.50
2022-09-24T07:51:28.231Z,12.60
2022-09-24T07:53:56.141Z,12.60
2022-09-24T07:56:24.042Z,12.60
2022-09-24T07:58:51.899Z,12.70
2022-09-24T08:01:19.530Z,12.70
2022-09-24T08:03:46.486Z,12.80
2022-09-24T08:06:13.854Z,12.80
2022-09-24T08:08:40.697Z,12.90
2022-09-24T08:11:08.128Z,12.90
2022-09-24T08:13:35.200Z,13.00
2022-09-24T08:16:03.101Z,13.00
2022-09-24T08:18:31.691Z,13.10
2022-09-24T08:21:02.838Z,13.10
2022-09-24T08:23:29.551Z,13.20
2022-09-24T08:25:56.246Z,13.20
2022-09-24T08:28:22.838Z,13.20
2022-09-24T08:30:49.678Z,13.30
2022-09-24T08:33:16.413Z,13.30
2022-09-24T08:35:43.194Z,13.30
2022-09-24T08:38:09.797Z,13.30
2022-09-24T08:40:43.014Z,13.20
2022-09-24T08:43:27.994Z,13.30
2022-09-24T08:46:17.725Z,13.30
2022-09-24T08:48:51.398Z,13.30
2022-09-24T08:51:21.226Z,13.40
2022-09-24T08:54:06.514Z,13.40
2022-09-24T08:56:37.311Z,13.40
2022-09-24T08:59:26.269Z,13.40
2022-09-24T09:02:19.403Z,13.50
2022-09-24T09:05:05.026Z,13.50
2022-09-24T09:07:43.659Z,13.50
2022-09-24T09:10:17.782Z,13.50
2022-09-24T09:13:20.692Z,13.50
2022-09-24T09:16:04.007Z,13.60
2022-09-24T09:18:41.335Z,13.60
2022-09-24T09:21:17.874Z,13.60
2022-09-24T09:23:52.338Z,13.60
2022-09-24T09:26:20.629Z,13.70
2022-09-24T09:28:48.789Z,13.70
2022-09-24T09:31:39.840Z,13.70
2022-09-24T09:34:09.742Z,13.70
2022-09-24T09:37:01.746Z,13.70
2022-09-24T09:40:01.054Z,13.70
2022-09-24T09:42:36.093Z,13.70
2022-09-24T09:45:27.685Z,13.80
2022-09-24T09:47:59.658Z,13.80
2022-09-24T09:50:46.598Z,13.80
2022-09-24T09:53:27.451Z,13.80
2022-09-24T09:56:02.976Z,13.80
2022-09-24T09:58:34.006Z,13.80
2022-09-24T10:01:09.557Z,13.70
2022-09-24T10:04:05.502Z,13.70
2022-09-24T10:06:35.903Z,13.70
2022-09-24T10:09:22.410Z,13.70
2022-09-24T10:11:49.135Z,13.70
2022-09-24T10:14:19.116Z,13.70
2022-09-24T10:16:55.057Z,13.70
2022-09-24T10:19:25.667Z,13.70
2022-09-24T10:21:54.594Z,13.70
2022-09-24T10:24:26.978Z,13.80
2022-09-24T10:26:54.122Z,13.80
2022-09-24T10:29:45.916Z,13.80
2022-09-24T10:32:30.698Z,13.90
2022-09-24T10:35:02.120Z,13.90
2022-09-24T10:37:29.698Z,14.00
2022-09-24T10:40:01.228Z,14.10
2022-09-24T10:42:30.395Z,14.10
2022-09-24T10:45:01.159Z,14.10
2022-09-24T10:47:57.419Z,14.10
2022-09-24T10:50:27.520Z,14.20
2022-09-24T10:53:15.839Z,14.20
2022-09-24T10:55:54.072Z,14.10
2022-09-24T10:58:48.556Z,14.10
2022-09-24T11:01:35.583Z,14.10
2022-09-24T11:04:19.070Z,14.10
2022-09-24T11:07:23.334Z,14.10
2022-09-24T11:10:31.580Z,14.10
2022-09-24T11:13:26.767Z,14.20
2022-09-24T11:16:15.614Z,14.10
2022-09-24T11:18:57.855Z,14.10
2022-09-24T11:22:13.763Z,14.10
2022-09-24T11:24:58.637Z,14.10
2022-09-24T11:27:43.992Z,14.10
2022-09-24T11:30:16.229Z,14.00
2022-09-24T11:33:23.039Z,13.90
2022-09-24T11:36:19.360Z,13.90
2022-09-24T11:39:21.814Z,13.90
2022-09-24T11:42:35.949Z,13.90
2022-09-24T11:45:21.603Z,13.90
2022-09-24T11:48:16.521Z,13.90
2022-09-24T11:51:04.361Z,13.90
2022-09-24T11:53:36.620Z,13.90
2022-09-24T11:56:20.436Z,13.90
2022-09-24T11:58:52.402Z,13.90
2022-09-24T12:01:32.450Z,13.90
2022-09-24T12:04:13.584Z,13.90
2022-09-24T12:06:52.221Z,13.90
2022-09-24T12:09:31.903Z,13.90
2022-09-24T12:12:10.852Z,13.90
2022-09-24T12:14:52.122Z,13.90
2022-09-24T12:17:27.955Z,14.00
2022-09-24T12:20:03.583Z,14.00
2022-09-24T12:22:32.936Z,14.00
2022-09-24T12:25:00.646Z,14.00
2022-09-24T12:27:35.928Z,14.00
2022-09-24T12:30:42.654Z,14.10
2022-09-24T12:33:32.015Z,14.10
2022-09-24T12:36:17.431Z,14.10
2022-09-24T12:38:49.618Z,14.20
2022-09-24T12:41:31.076Z,14.20
2022-09-24T12:44:12.084Z,14.20
2022-09-24T12:46:43.047Z,14.30
2022-09-24T12:49:26.643Z,14.30
2022-09-24T12:51:58.292Z,14.30
2022-09-24T12:54:35.113Z,14.40
2022-09-24T12:57:11.984Z,14.40
2022-09-24T12:59:49.628Z,14.40
2022-09-24T13:02:24.339Z,14.40
2022-09-24T13:05:03.661Z,14.40
2022-09-24T13:07:37.845Z,14.40
2022-09-24T13:10:16.723Z,14.40
2022-09-24T13:12:45.113Z,14.30
2022-09-24T13:15:42.066Z,14.30
2022-09-24T13:18:10.112Z,14.30
2022-09-24T13:20:49.246Z,14.30
2022-09-24T13:23:23.284Z,14.30
2022-09-24T13:26:04.947Z,14.30
2022-09-24T13:28:38.838Z,14.40
2022-09-24T13:31:22.127Z,14.30
2022-09-24T13:33:56.404Z,14.30
2022-09-24T13:36:47.325Z,14.40
2022-09-24T13:39:20.327Z,14.40
2022-09-24T13:41:47.141Z,14.40
2022-09-24T13:44:34.178Z,14.40
2022-09-24T13:47:39.620Z,14.40
2022-09-24T13:50:23.673Z,14.50
2022-09-24T13:52:53.794Z,14.50
2022-09-24T13:55:26.535Z,14.50
2022-09-24T13:57:53.822Z,14.40
2022-09-24T14:00:27.625Z,14.40
2022-09-24T14:03:19.542Z,14.40
2022-09-24T14:05:46.583Z,14.40
2022-09-24T14:08:15.705Z,14.30
2022-09-24T14:10:43.852Z,14.30
2022-09-24T14:13:19.266Z,14.40
2022-09-24T14:16:07.212Z,14.40
2022-09-24T14:18:34.389Z,14.40
2022-09-24T14:21:16.204Z,14.40
2022-09-24T14:23:55.652Z,14.50
2022-09-24T14:26:28.721Z,14.50
2022-09-24T14:28:58.239Z,14.50
2022-09-24T14:31:25.308Z,14.50
2022-09-24T14:33:52.609Z,14.40
2022-09-24T14:36:27.573Z,14.40
2022-09-24T14:39:02.000Z,14.40
2022-09-24T14:41:32.931Z,14.40
2022-09-24T14:44:06.106Z,14.40
2022-09-24T14:46:37.315Z,14.40
2022-09-24T14:49:06.668Z,14.40
2022-09-24T14:51:33.728Z,14.40
2022-09-24T14:54:22.058Z,14.50
2022-09-24T14:56:49.517Z,14.50
2022-09-24T14:59:28.550Z,14.50
2022-09-24T15:02:21.561Z,14.50
2022-09-24T15:04:52.096Z,14.60
2022-09-24T15:07:23.907Z,14.60
2022-09-24T15:09:54.195Z,14.50
2022-09-24T15:12:35.992Z,14.50
2022-09-24T15:15:25.074Z,14.50
2022-09-24T15:17:52.125Z,14.50
2022-09-24T15:20:19.181Z,14.40
2022-09-24T15:22:47.456Z,14.40
2022-09-24T15:25:15.525Z,14.40
2022-09-24T15:27:42.869Z,14.40
2022-09-24T15:30:21.023Z,14.30
2022-09-24T15:32:51.741Z,14.30
2022-09-24T15:35:18.782Z,14.20
2022-09-24T15:37:46.332Z,14.20
2022-09-24T15:40:22.582Z,14.10
2022-09-24T15:42:50.974Z,14.10
2022-09-24T15:45:21.380Z,14.00
2022-09-24T15:47:51.138Z,13.90
2022-09-24T15:50:20.497Z,13.80
2022-09-24T15:52:58.002Z,13.80
2022-09-24T15:55:25.140Z,13.70
2022-09-24T15:57:52.296Z,13.60
2022-09-24T16:00:22.199Z,13.60
2022-09-24T16:02:56.011Z,13.50
2022-09-24T16:05:24.095Z,13.40
2022-09-24T16:07:51.144Z,13.40
2022-09-24T16:10:18.365Z,13.30
2022-09-24T16:12:45.556Z,13.30
2022-09-24T16:15:14.269Z,13.30
2022-09-24T16:17:41.845Z,13.30
2022-09-24T16:20:09.964Z,13.20
2022-09-24T16:22:37.143Z,13.20
2022-09-24T16:25:04.996Z,13.10
2022-09-24T16:27:31.924Z,13.10
2022-09-24T16:29:58.990Z,13.10
2022-09-24T16:32:26.341Z,13.00
2022-09-24T16:34:54.968Z,13.00
2022-09-24T16:37:22.078Z,13.00
2022-09-24T16:39:49.302Z,12.90
2022-09-24T16:42:16.274Z,12.90
2022-09-24T16:44:43.223Z,12.90
2022-09-24T16:47:10.571Z,12.80
2022-09-24T16:49:37.492Z,12.70
2022-09-24T16:52:04.454Z,12.70
2022-09-24T16:54:32.875Z,12.60
2022-09-24T16:57:01.862Z,12.60
2022-09-24T16:59:28.848Z,12.50
2022-09-24T17:01:56.028Z,12.50
2022-09-24T17:04:22.948Z,12.50
2022-09-24T17:06:49.916Z,12.40
2022-09-24T17:09:35.408Z,12.40
2022-09-24T17:12:02.598Z,12.40
2022-09-24T17:14:29.553Z,12.40
2022-09-24T17:16:56.620Z,12.30
2022-09-24T17:19:23.694Z,12.30
2022-09-24T17:21:50.807Z,12.30
2022-09-24T17:24:21.397Z,12.20
2022-09-24T17:26:49.256Z,12.20
2022-09-24T17:29:20.488Z,12.20
2022-09-24T17:31:48.451Z,12.10
2022-09-24T17:34:15.688Z,12.10
2022-09-24T17:36:42.941Z,12.00
2022-09-24T17:39:12.874Z,11.90
2022-09-24T17:41:40.098Z,11.90
2022-09-24T17:44:07.578Z,11.80
2022-09-24T17:46:35.965Z,11.70
2022-09-24T17:49:03.211Z,11.70
2022-09-24T17:51:32.785Z,11.70
2022-09-24T17:54:03.661Z,11.60
2022-09-24T17:56:32.546Z,11.60
2022-09-24T17:58:59.894Z,11.50
2022-09-24T18:01:29.573Z,11.50
2022-09-24T18:03:58.542Z,11.50
2022-09-24T18:06:32.500Z,11.40
2022-09-24T18:09:01.072Z,11.40
2022-09-24T18:11:30.713Z,11.30
2022-09-24T18:13:59.610Z,11.30
2022-09-24T18:16:32.304Z,11.30
2022-09-24T18:19:00.841Z,11.30
2022-09-24T18:21:29.352Z,11.30
2022-09-24T18:23:57.821Z,11.30
2022-09-24T18:26:29.386Z,11.30
2022-09-24T18:28:58.106Z,11.30
2022-09-24T18:31:29.697Z,11.30
2022-09-24T18:34:03.954Z,11.30
2022-09-24T18:36:31.937Z,11.20
2022-09-24T18:38:58.861Z,11.20
2022-09-24T18:41:28.360Z,11.20
2022-09-24T18:43:56.183Z,11.10
2022-09-24T18:46:23.867Z,11.10
2022-09-24T18:48:53.310Z,11.10
2022-09-24T18:51:21.645Z,11.10
2022-09-24T18:53:52.641Z,11.10
2022-09-24T18:56:20.074Z,11.10
2022-09-24T18:58:47.558Z,11.10
2022-09-24T19:01:16.492Z,11.10
2022-09-24T19:03:43.641Z,11.10
2022-09-24T19:06:12.874Z,11.10
2022-09-24T19:08:40.648Z,11.20
2022-09-24T19:11:13.822Z,11.20
2022-09-24T19:13:42.379Z,11.20
2022-09-24T19:16:12.539Z,11.10
2022-09-24T19:18:40.955Z,11.20
2022-09-24T19:21:09.903Z,11.10
2022-09-24T19:23:41.898Z,11.10
2022-09-24T19:26:09.771Z,11.10
2022-09-24T19:28:39.031Z,11.10
2022-09-24T19:31:06.333Z,11.10
2022-09-24T19:33:33.219Z,11.10
2022-09-24T19:36:02.830Z,11.10
2022-09-24T19:38:33.144Z,11.10
2022-09-24T19:41:06.994Z,11.00
2022-09-24T19:43:34.622Z,11.00
2022-09-24T19:46:07.566Z,11.00
2022-09-24T19:48:40.283Z,11.00
2022-09-24T19:51:10.666Z,11.00
2022-09-24T19:53:37.918Z,11.00
2022-09-24T19:56:06.606Z,10.90
2022-09-24T19:58:33.743Z,10.90
2022-09-24T20:01:02.005Z,10.90
2022-09-24T20:03:29.196Z,10.90
2022-09-24T20:05:56.002Z,10.80
2022-09-24T20:08:23.331Z,10.80
2022-09-24T20:10:50.124Z,10.80
2022-09-24T20:13:17.356Z,10.80
2022-09-24T20:15:44.581Z,10.80
2022-09-24T20:18:12.486Z,10.80
2022-09-24T20:20:39.892Z,10.70
2022-09-24T20:23:08.357Z,10.70
2022-09-24T20:25:54.052Z,10.70
2022-09-24T20:28:20.981Z,10.70
2022-09-24T20:30:47.777Z,10.60
2022-09-24T20:33:17.650Z,10.60
2022-09-24T20:35:45.535Z,10.60
2022-09-24T20:38:12.250Z,10.50
2022-09-24T20:40:40.246Z,10.50
2022-09-24T20:43:07.202Z,10.50
2022-09-24T20:45:34.419Z,10.40
2022-09-24T20:48:01.646Z,10.40
2022-09-24T20:50:28.615Z,10.40
2022-09-24T20:52:55.467Z,10.40
2022-09-24T20:55:23.205Z,10.50
2022-09-24T20:57:50.587Z,10.50
2022-09-24T21:00:17.737Z,10.50
2022-09-24T21:02:44.970Z,10.50
2022-09-24T21:05:12.262Z,10.50
2022-09-24T21:07:40.205Z,10.50
2022-09-24T21:10:12.724Z,10.50
2022-09-24T21:12:40.335Z,10.50
2022-09-24T21:15:08.658Z,10.50
2022-09-24T21:17:35.696Z,10.60
2022-09-24T21:20:02.394Z,10.60
2022-09-24T21:22:29.227Z,10.60
2022-09-24T21:24:56.193Z,10.60
2022-09-24T21:27:23.179Z,10.60
2022-09-24T21:29:50.009Z,10.60
2022-09-24T21:32:17.515Z,10.60
2022-09-24T21:34:45.287Z,10.60
2022-09-24T21:37:15.478Z,10.60
2022-09-24T21:39:44.428Z,10.60
2022-09-24T21:42:11.711Z,10.70
2022-09-24T21:44:38.786Z,10.70
2022-09-24T21:47:05.614Z,10.70
2022-09-24T21:49:33.543Z,10.70
2022-09-24T21:52:00.574Z,10.70
2022-09-24T21:54:27.458Z,10.70
2022-09-24T21:56:54.335Z,10.60
2022-09-24T21:59:40.528Z,10.60
2022-09-24T22:02:09.987Z,10.60
2022-09-24T22:04:36.983Z,10.60
2022-09-24T22:07:04.020Z,10.60
2022-09-24T22:09:32.134Z,10.60
2022-09-24T22:12:00.552Z,10.60
2022-09-24T22:14:27.917Z,10.60
2022-09-24T22:16:56.091Z,10.60
2022-09-24T22:19:23.099Z,10.60
2022-09-24T22:21:49.761Z,10.60
2022-09-24T22:24:16.652Z,10.60
2022-09-24T22:26:43.665Z,10.60
2022-09-24T22:29:10.483Z,10.60
2022-09-24T22:31:37.168Z,10.60
2022-09-24T22:34:22.405Z,10.60
2022-09-24T22:36:49.208Z,10.60
2022-09-24T22:39:15.990Z,10.60
2022-09-24T22:41:46.365Z,10.50
2022-09-24T22:44:13.577Z,10.50
2022-09-24T22:46:41.382Z,10.50
2022-09-24T22:49:08.552Z,10.50
2022-09-24T22:51:39.342Z,10.50
2022-09-24T22:54:07.920Z,10.40
2022-09-24T22:56:35.775Z,10.40
2022-09-24T22:59:03.310Z,10.40
2022-09-24T23:01:33.704Z,10.40
2022-09-24T23:04:01.685Z,10.40
2022-09-24T23:06:28.784Z,10.40
2022-09-24T23:08:55.982Z,10.40
2022-09-24T23:11:28.972Z,10.30
2022-09-24T23:14:01.295Z,10.30
2022-09-24T23:16:30.441Z,10.30
2022-09-24T23:18:59.596Z,10.30
2022-09-24T23:21:28.965Z,10.30
2022-09-24T23:24:03.982Z,10.30
2022-09-24T23:26:31.484Z,10.20
2022-09-24T23:28:59.202Z,10.20
2022-09-24T23:31:29.420Z,10.20
2022-09-24T23:33:57.736Z,10.30
2022-09-24T23:36:26.157Z,10.20
2022-09-24T23:38:53.724Z,10.20
2022-09-24T23:41:21.590Z,10.20
2022-09-24T23:43:49.338Z,10.20
2022-09-24T23:46:16.921Z,10.30
2022-09-24T23:48:43.972Z,10.30
2022-09-24T23:51:11.403Z,10.30
2022-09-24T23:53:38.435Z,10.30
2022-09-24T23:56:06.863Z,10.30
2022-09-24T23:58:34.604Z,10.30
